createdAt,value
2018-04-15T00:00:49.400Z,72.57
2018-04-15T00:03:17.560Z,65.03
2018-04-15T00:05:45.689Z,64.17
2018-04-15T00:08:13.917Z,62.30
2018-04-15T00:10:42.054Z,54.77
2018-04-15T00:13:10.192Z,57.33
2018-04-15T00:15:38.336Z,53.40
2018-04-15T00:18:06.473Z,57.53
2018-04-15T00:20:34.617Z,56.17
2018-04-15T00:23:02.758Z,58.80
2018-04-15T00:25:30.908Z,58.53
2018-04-15T00:27:59.029Z,62.83
2018-04-15T00:30:27.159Z,56.87
2018-04-15T00:32:55.286Z,54.23
2018-04-15T00:35:23.426Z,60.00
2018-04-15T00:37:51.914Z,57.60
2018-04-15T00:40:20.045Z,59.37
2018-04-15T00:42:48.188Z,57.83
2018-04-15T00:45:16.319Z,68.70
2018-04-15T00:47:44.462Z,67.60
2018-04-15T00:50:12.644Z,69.27
2018-04-15T00:52:41.053Z,70.67
2018-04-15T00:55:09.176Z,71.87
2018-04-15T00:57:37.294Z,63.47
2018-04-15T01:00:05.441Z,59.90
2018-04-15T01:02:33.588Z,64.70
2018-04-15T01:05:01.721Z,64.33
2018-04-15T01:07:29.876Z,63.73
2018-04-15T01:09:57.987Z,67.10
2018-04-15T01:12:26.123Z,64.37
2018-04-15T01:14:54.283Z,68.47
2018-04-15T01:17:22.405Z,67.63
2018-04-15T01:19:50.546Z,69.30
2018-04-15T01:22:18.682Z,69.80
2018-04-15T01:24:46.820Z,69.20
2018-04-15T01:27:14.953Z,66.00
2018-04-15T01:29:43.166Z,69.70
2018-04-15T01:32:11.302Z,68.77
2018-04-15T01:34:39.440Z,69.83
2018-04-15T01:37:07.597Z,68.80
2018-04-15T01:39:35.715Z,65.87
2018-04-15T01:42:03.851Z,64.00
2018-04-15T01:44:32.006Z,65.63
2018-04-15T01:47:00.111Z,67.47
2018-04-15T01:49:28.227Z,57.93
2018-04-15T01:51:56.403Z,63.50
2018-04-15T01:54:24.528Z,59.27
2018-04-15T01:56:52.656Z,59.27
2018-04-15T01:59:20.801Z,63.63
2018-04-15T02:01:48.933Z,57.90
2018-04-15T02:04:17.074Z,55.57
2018-04-15T02:06:45.304Z,57.27
2018-04-15T02:09:13.452Z,56.27
2018-04-15T02:11:41.577Z,54.87
2018-04-15T02:14:09.734Z,57.40
2018-04-15T02:16:37.878Z,52.67
2018-04-15T02:19:06.001Z,56.33
2018-04-15T02:21:34.326Z,50.57
2018-04-15T02:24:02.454Z,56.60
2018-04-15T02:26:30.573Z,50.93
2018-04-15T02:28:58.733Z,47.23
2018-04-15T02:31:26.885Z,49.60
2018-04-15T02:33:55.022Z,47.13
2018-04-15T02:36:23.165Z,44.83
2018-04-15T02:38:51.295Z,41.43
2018-04-15T02:41:19.424Z,46.40
2018-04-15T02:43:47.562Z,55.70
2018-04-15T02:46:18.693Z,47.93
2018-04-15T02:48:46.961Z,45.83
2018-04-15T02:51:15.086Z,44.87
2018-04-15T02:53:43.289Z,39.87
2018-04-15T02:56:11.416Z,38.57
2018-04-15T02:58:39.575Z,44.03
2018-04-15T03:01:07.704Z,40.50
2018-04-15T03:03:35.849Z,40.57
2018-04-15T03:06:04.011Z,38.93
2018-04-15T03:08:32.137Z,43.17
2018-04-15T03:11:00.288Z,38.40
2018-04-15T03:13:28.468Z,39.03
2018-04-15T03:15:56.594Z,38.20
2018-04-15T03:18:24.736Z,41.73
2018-04-15T03:20:52.881Z,38.83
2018-04-15T03:23:21.021Z,43.43
2018-04-15T03:25:49.150Z,38.00
2018-04-15T03:28:17.306Z,37.17
2018-04-15T03:30:45.442Z,39.77
2018-04-15T03:33:13.586Z,38.20
2018-04-15T03:35:41.734Z,36.50
2018-04-15T03:38:09.868Z,36.40
2018-04-15T03:40:38.004Z,35.57
2018-04-15T03:43:06.139Z,34.63
2018-04-15T03:45:34.271Z,33.97
2018-04-15T03:48:05.740Z,31.57
2018-04-15T03:50:33.918Z,30.40
2018-04-15T03:53:02.051Z,27.27
2018-04-15T03:55:30.181Z,24.60
2018-04-15T03:57:58.339Z,28.20
2018-04-15T04:00:26.443Z,25.43
2018-04-15T04:02:54.559Z,22.67
2018-04-15T04:05:22.711Z,18.67
2018-04-15T04:07:50.846Z,18.93
2018-04-15T04:10:18.992Z,16.67
2018-04-15T04:12:47.134Z,15.13
2018-04-15T04:15:15.242Z,16.20
2018-04-15T04:17:55.164Z,15.83
2018-04-15T04:20:35.098Z,14.47
2018-04-15T04:23:15.266Z,12.67
2018-04-15T04:25:47.918Z,13.63
2018-04-15T04:28:16.181Z,13.07
2018-04-15T04:30:44.299Z,12.77
2018-04-15T04:33:12.425Z,12.83
2018-04-15T04:35:40.572Z,12.33
2018-04-15T04:38:08.685Z,13.57
2018-04-15T04:40:36.835Z,13.00
2018-04-15T04:43:04.985Z,13.97
2018-04-15T04:45:33.120Z,15.57
2018-04-15T04:48:01.259Z,14.73
2018-04-15T04:50:29.410Z,14.03
2018-04-15T04:52:57.559Z,13.23
2018-04-15T04:55:25.710Z,14.43
2018-04-15T04:57:53.845Z,15.30
2018-04-15T05:00:21.984Z,14.43
2018-04-15T05:02:50.124Z,14.10
2018-04-15T05:05:18.453Z,14.17
2018-04-15T05:07:46.606Z,13.93
2018-04-15T05:10:14.729Z,16.87
2018-04-15T05:12:42.873Z,13.37
2018-04-15T05:15:11.002Z,14.47
2018-04-15T05:17:39.281Z,15.73
2018-04-15T05:20:07.418Z,13.13
2018-04-15T05:22:35.552Z,12.23
2018-04-15T05:25:03.700Z,11.67
2018-04-15T05:27:31.828Z,12.23
2018-04-15T05:30:00.027Z,14.53
2018-04-15T05:32:28.142Z,12.30
2018-04-15T05:34:56.293Z,14.77
2018-04-15T05:37:24.441Z,14.37
2018-04-15T05:39:52.579Z,14.60
2018-04-15T05:42:20.940Z,13.90
2018-04-15T05:44:49.073Z,14.57
2018-04-15T05:47:17.215Z,13.30
2018-04-15T05:49:45.551Z,13.93
2018-04-15T05:52:13.699Z,12.53
2018-04-15T05:54:41.840Z,12.83
2018-04-15T05:57:09.996Z,11.77
2018-04-15T05:59:39.051Z,14.40
2018-04-15T06:02:07.184Z,13.20
2018-04-15T06:04:35.313Z,11.17
2018-04-15T06:07:03.433Z,13.53
2018-04-15T06:09:31.565Z,12.97
2018-04-15T06:11:59.709Z,12.23
2018-04-15T06:14:27.841Z,13.00
2018-04-15T06:16:55.959Z,15.70
2018-04-15T06:19:24.107Z,12.77
2018-04-15T06:21:52.234Z,12.77
2018-04-15T06:24:20.478Z,14.57
2018-04-15T06:26:48.613Z,14.37
2018-04-15T06:29:16.753Z,14.50
2018-04-15T06:31:44.870Z,16.40
2018-04-15T06:34:13.013Z,13.17
2018-04-15T06:36:41.151Z,14.37
2018-04-15T06:39:09.265Z,11.33
2018-04-15T06:41:37.396Z,13.37
2018-04-15T06:44:05.537Z,12.57
2018-04-15T06:46:33.677Z,12.37
2018-04-15T06:49:01.820Z,14.27
2018-04-15T06:51:30.024Z,10.77
2018-04-15T06:53:58.138Z,11.10
2018-04-15T06:56:26.277Z,10.07
2018-04-15T06:58:54.412Z,12.63
2018-04-15T07:01:22.533Z,10.37
2018-04-15T07:03:50.667Z,11.87
2018-04-15T07:06:18.776Z,11.83
2018-04-15T07:08:46.928Z,11.27
2018-04-15T07:11:15.061Z,8.93
2018-04-15T07:13:43.207Z,8.93
2018-04-15T07:16:11.365Z,9.70
2018-04-15T07:18:39.518Z,8.93
2018-04-15T07:21:07.650Z,8.53
2018-04-15T07:23:35.757Z,9.30
2018-04-15T07:26:03.888Z,8.27
2018-04-15T07:28:32.037Z,8.70
2018-04-15T07:31:00.138Z,9.30
2018-04-15T07:33:28.293Z,9.23
2018-04-15T07:35:56.413Z,9.13
2018-04-15T07:38:24.537Z,11.57
2018-04-15T07:40:52.700Z,9.63
2018-04-15T07:43:20.848Z,9.40
2018-04-15T07:45:48.964Z,8.23
2018-04-15T07:48:17.125Z,9.17
2018-04-15T07:50:45.252Z,9.80
2018-04-15T07:53:13.402Z,8.43
2018-04-15T07:55:41.526Z,8.70
2018-04-15T07:58:13.263Z,11.33
2018-04-15T08:00:41.410Z,9.87
2018-04-15T08:03:09.571Z,11.57
2018-04-15T08:05:37.679Z,10.57
2018-04-15T08:08:05.799Z,10.50
2018-04-15T08:10:33.994Z,8.63
2018-04-15T08:13:02.123Z,9.43
2018-04-15T08:15:33.681Z,10.70
2018-04-15T08:18:01.826Z,7.87
2018-04-15T08:20:29.976Z,7.80
2018-04-15T08:22:58.100Z,9.10
2018-04-15T08:25:26.251Z,6.93
2018-04-15T08:27:54.350Z,8.53
2018-04-15T08:30:22.492Z,9.53
2018-04-15T08:32:50.623Z,8.33
2018-04-15T08:35:18.738Z,7.50
2018-04-15T08:37:46.853Z,7.50
2018-04-15T08:40:15.146Z,6.50
2018-04-15T08:42:46.302Z,6.97
2018-04-15T08:45:14.457Z,7.60
2018-04-15T08:47:42.791Z,8.50
2018-04-15T08:50:10.923Z,6.00
2018-04-15T08:52:39.045Z,5.80
2018-04-15T08:55:07.187Z,5.53
2018-04-15T08:57:35.327Z,4.67
2018-04-15T09:00:03.458Z,4.70
2018-04-15T09:02:31.739Z,4.70
2018-04-15T09:04:59.882Z,5.27
2018-04-15T09:07:27.996Z,4.30
2018-04-15T09:09:56.495Z,3.50
2018-04-15T09:12:24.638Z,6.17
2018-04-15T09:14:52.777Z,4.30
2018-04-15T09:17:20.940Z,4.10
2018-04-15T09:19:49.052Z,4.30
2018-04-15T09:22:17.256Z,3.17
2018-04-15T09:24:45.437Z,4.23
2018-04-15T09:27:13.556Z,3.77
2018-04-15T09:29:41.658Z,3.67
2018-04-15T09:32:13.270Z,3.87
2018-04-15T09:34:41.398Z,4.40
2018-04-15T09:37:09.518Z,2.60
2018-04-15T09:39:37.672Z,4.13
2018-04-15T09:42:05.808Z,3.47
2018-04-15T09:44:33.909Z,3.27
2018-04-15T09:47:02.054Z,4.53
2018-04-15T09:49:30.184Z,5.63
2018-04-15T09:51:58.311Z,3.40
2018-04-15T09:54:26.461Z,5.00
2018-04-15T09:56:54.590Z,3.57
2018-04-15T09:59:22.713Z,6.17
2018-04-15T10:01:54.578Z,3.57
2018-04-15T10:04:22.713Z,5.23
2018-04-15T10:06:50.841Z,6.23
2018-04-15T10:09:19.806Z,6.87
2018-04-15T10:11:47.921Z,5.20
2018-04-15T10:14:16.041Z,7.00
2018-04-15T10:16:44.183Z,5.50
2018-04-15T10:19:12.301Z,6.83
2018-04-15T10:21:40.450Z,6.70
2018-04-15T10:24:08.618Z,5.30
2018-04-15T10:26:36.729Z,6.07
2018-04-15T10:29:04.846Z,5.57
2018-04-15T10:31:33.012Z,3.90
2018-04-15T10:34:01.122Z,3.20
2018-04-15T10:36:29.246Z,6.80
2018-04-15T10:38:57.383Z,3.40
2018-04-15T10:41:25.500Z,4.43
2018-04-15T10:43:53.631Z,3.73
2018-04-15T10:46:21.768Z,3.97
2018-04-15T10:48:49.888Z,4.77
2018-04-15T10:51:18.007Z,4.17
2018-04-15T10:53:46.149Z,2.07
2018-04-15T10:56:14.272Z,2.70
2018-04-15T10:58:42.371Z,2.53
2018-04-15T11:01:10.519Z,3.00
2018-04-15T11:03:38.658Z,2.83
2018-04-15T11:06:06.780Z,3.03
2018-04-15T11:08:34.925Z,2.90
2018-04-15T11:11:03.060Z,2.83
2018-04-15T11:13:31.177Z,2.77
2018-04-15T11:16:02.549Z,2.77
2018-04-15T11:18:30.675Z,4.77
2018-04-15T11:20:58.786Z,5.43
2018-04-15T11:23:26.929Z,5.73
2018-04-15T11:25:55.077Z,3.40
2018-04-15T11:28:23.177Z,1.80
2018-04-15T11:30:51.327Z,2.03
2018-04-15T11:33:19.450Z,2.73
2018-04-15T11:35:47.568Z,1.87
2018-04-15T11:38:15.708Z,3.27
2018-04-15T11:40:43.841Z,3.00
2018-04-15T11:43:11.963Z,2.10
2018-04-15T11:45:40.114Z,1.70
2018-04-15T11:48:08.238Z,2.70
2018-04-15T11:50:36.360Z,2.33
2018-04-15T11:53:04.487Z,1.80
2018-04-15T11:55:32.604Z,5.57
2018-04-15T11:58:00.709Z,3.13
2018-04-15T12:00:28.864Z,2.70
2018-04-15T12:02:56.988Z,2.07
2018-04-15T12:05:25.124Z,1.87
2018-04-15T12:07:53.254Z,2.40
2018-04-15T12:10:21.426Z,4.07
2018-04-15T12:12:49.528Z,3.83
2018-04-15T12:15:17.923Z,2.80
2018-04-15T12:17:46.105Z,3.20
2018-04-15T12:20:14.229Z,2.70
2018-04-15T12:22:42.370Z,2.60
2018-04-15T12:25:10.475Z,3.03
2018-04-15T12:27:38.605Z,3.17
2018-04-15T12:30:06.726Z,3.00
2018-04-15T12:32:35.068Z,2.50
2018-04-15T12:35:03.182Z,3.17
2018-04-15T12:37:31.306Z,2.73
2018-04-15T12:39:59.441Z,2.60
2018-04-15T12:42:27.562Z,3.47
2018-04-15T12:44:55.922Z,5.07
2018-04-15T12:47:24.052Z,4.27
2018-04-15T12:49:52.155Z,4.57
2018-04-15T12:52:24.008Z,2.97
2018-04-15T12:54:52.175Z,3.47
2018-04-15T12:57:21.246Z,4.93
2018-04-15T12:59:49.432Z,4.03
2018-04-15T13:02:17.553Z,5.70
2018-04-15T13:04:45.694Z,4.37
2018-04-15T13:07:13.842Z,4.23
2018-04-15T13:09:41.967Z,2.73
2018-04-15T13:12:10.086Z,3.40
2018-04-15T13:14:38.386Z,4.03
2018-04-15T13:17:06.482Z,3.13
2018-04-15T13:19:34.607Z,5.23
2018-04-15T13:22:02.727Z,3.30
2018-04-15T13:24:34.531Z,4.40
2018-04-15T13:27:02.710Z,3.43
2018-04-15T13:29:30.856Z,3.20
2018-04-15T13:31:58.983Z,3.77
2018-04-15T13:34:27.107Z,3.20
2018-04-15T13:36:55.244Z,2.80
2018-04-15T13:39:24.298Z,5.20
2018-04-15T13:41:52.413Z,4.30
2018-04-15T13:44:20.565Z,5.33
2018-04-15T13:46:48.734Z,3.00
2018-04-15T13:49:16.832Z,4.23
2018-04-15T13:51:45.093Z,4.80
2018-04-15T13:54:13.217Z,4.03
2018-04-15T13:56:41.380Z,3.43
2018-04-15T13:59:09.520Z,2.87
2018-04-15T14:01:38.573Z,3.00
2018-04-15T14:04:06.702Z,2.97
2018-04-15T14:06:34.842Z,2.97
2018-04-15T14:09:02.968Z,4.47
2018-04-15T14:11:31.083Z,2.87
2018-04-15T14:13:59.217Z,5.13
2018-04-15T14:16:27.332Z,3.50
2018-04-15T14:18:55.488Z,3.83
2018-04-15T14:21:23.612Z,2.80
2018-04-15T14:23:51.743Z,3.13
2018-04-15T14:26:22.907Z,3.23
2018-04-15T14:28:51.041Z,3.47
2018-04-15T14:31:19.202Z,3.00
2018-04-15T14:33:51.177Z,2.67
2018-04-15T14:36:19.311Z,2.40
2018-04-15T14:38:47.420Z,2.30
2018-04-15T14:41:15.567Z,2.77
2018-04-15T14:43:43.903Z,3.37
2018-04-15T14:46:12.038Z,2.63
2018-04-15T14:48:40.143Z,4.40
2018-04-15T14:51:08.652Z,2.50
2018-04-15T14:53:39.852Z,1.50
2018-04-15T14:56:07.983Z,2.43
2018-04-15T14:58:36.115Z,1.77
2018-04-15T15:01:04.247Z,2.00
2018-04-15T15:03:32.438Z,3.10
2018-04-15T15:06:00.580Z,2.33
2018-04-15T15:08:28.716Z,2.47
2018-04-15T15:10:56.842Z,2.37
2018-04-15T15:13:24.990Z,5.70
2018-04-15T15:15:53.077Z,3.33
2018-04-15T15:18:21.207Z,2.47
2018-04-15T15:20:49.392Z,3.07
2018-04-15T15:23:17.520Z,4.37
2018-04-15T15:25:45.656Z,3.37
2018-04-15T15:28:13.780Z,4.30
2018-04-15T15:30:41.927Z,5.37
2018-04-15T15:33:10.055Z,2.83
2018-04-15T15:35:38.212Z,2.37
2018-04-15T15:38:06.334Z,2.20
2018-04-15T15:40:34.458Z,2.30
2018-04-15T15:43:02.583Z,3.07
2018-04-15T15:45:30.720Z,2.97
2018-04-15T15:47:58.829Z,1.50
2018-04-15T15:50:27.173Z,2.73
2018-04-15T15:52:55.296Z,1.80
2018-04-15T15:55:23.411Z,2.77
2018-04-15T15:57:51.538Z,3.83
2018-04-15T16:00:19.683Z,3.53
2018-04-15T16:02:47.802Z,2.90
2018-04-15T16:05:15.936Z,2.73
2018-04-15T16:07:44.071Z,2.53
2018-04-15T16:10:12.270Z,3.00
2018-04-15T16:12:40.446Z,3.73
2018-04-15T16:15:08.582Z,2.03
2018-04-15T16:17:36.716Z,2.63
2018-04-15T16:20:04.843Z,4.23
2018-04-15T16:22:32.953Z,2.53
2018-04-15T16:25:01.991Z,2.83
2018-04-15T16:27:30.107Z,2.57
2018-04-15T16:29:58.237Z,1.90
2018-04-15T16:32:26.382Z,2.83
2018-04-15T16:34:54.536Z,5.27
2018-04-15T16:37:22.658Z,2.30
2018-04-15T16:39:50.937Z,2.40
2018-04-15T16:42:19.081Z,1.97
2018-04-15T16:44:47.297Z,5.47
2018-04-15T16:47:15.444Z,3.90
2018-04-15T16:49:43.636Z,4.23
2018-04-15T16:52:11.749Z,1.83
2018-04-15T16:54:39.883Z,3.80
2018-04-15T16:57:08.242Z,2.30
2018-04-15T16:59:36.359Z,3.37
2018-04-15T17:02:04.473Z,3.87
2018-04-15T17:04:32.643Z,3.97
2018-04-15T17:07:00.783Z,2.90
2018-04-15T17:09:28.936Z,3.83
2018-04-15T17:11:57.066Z,2.77
2018-04-15T17:14:25.207Z,2.90
2018-04-15T17:16:53.347Z,3.57
2018-04-15T17:19:21.555Z,2.53
2018-04-15T17:21:49.750Z,3.70
2018-04-15T17:24:17.926Z,3.43
2018-04-15T17:26:46.270Z,5.10
2018-04-15T17:29:14.407Z,8.93
2018-04-15T17:31:42.804Z,3.13
2018-04-15T17:34:10.925Z,3.77
2018-04-15T17:36:39.042Z,3.17
2018-04-15T17:39:07.170Z,3.60
2018-04-15T17:41:35.303Z,5.70
2018-04-15T17:44:03.436Z,4.07
2018-04-15T17:46:31.543Z,3.13
2018-04-15T17:48:59.693Z,5.20
2018-04-15T17:51:27.804Z,3.70
2018-04-15T17:53:55.952Z,2.87
2018-04-15T17:56:24.110Z,2.93
2018-04-15T17:58:52.246Z,3.33
2018-04-15T18:01:23.542Z,4.07
2018-04-15T18:03:51.674Z,4.67
2018-04-15T18:06:19.783Z,4.97
2018-04-15T18:08:47.913Z,4.63
2018-04-15T18:11:16.067Z,2.77
2018-04-15T18:13:44.221Z,3.70
2018-04-15T18:16:12.356Z,4.70
2018-04-15T18:18:40.483Z,4.40
2018-04-15T18:21:08.607Z,3.50
2018-04-15T18:23:37.000Z,3.43
2018-04-15T18:26:05.419Z,3.80
2018-04-15T18:28:33.542Z,4.93
2018-04-15T18:31:01.665Z,5.27
2018-04-15T18:33:29.806Z,3.33
2018-04-15T18:35:57.941Z,3.03
2018-04-15T18:38:26.084Z,4.07
2018-04-15T18:40:54.211Z,2.70
2018-04-15T18:43:22.347Z,2.50
2018-04-15T18:45:50.451Z,2.17
2018-04-15T18:48:18.608Z,4.47
2018-04-15T18:50:46.752Z,6.80
2018-04-15T18:53:14.872Z,5.33
2018-04-15T18:55:43.027Z,5.70
2018-04-15T18:58:11.158Z,4.53
2018-04-15T19:00:39.279Z,3.47
2018-04-15T19:03:07.431Z,3.57
2018-04-15T19:05:35.562Z,2.80
2018-04-15T19:08:03.685Z,3.20
2018-04-15T19:10:31.804Z,3.40
2018-04-15T19:12:59.932Z,2.53
2018-04-15T19:15:28.087Z,4.73
2018-04-15T19:17:56.461Z,3.37
2018-04-15T19:20:24.592Z,2.20
2018-04-15T19:22:52.727Z,3.17
2018-04-15T19:25:20.877Z,4.23
2018-04-15T19:27:48.986Z,4.70
2018-04-15T19:30:17.155Z,4.00
2018-04-15T19:32:45.302Z,3.60
2018-04-15T19:35:13.443Z,3.57
2018-04-15T19:37:41.562Z,7.97
2018-04-15T19:40:09.678Z,10.33
2018-04-15T19:42:37.816Z,6.60
2018-04-15T19:45:05.933Z,4.47
2018-04-15T19:47:34.139Z,5.27
2018-04-15T19:50:02.262Z,2.60
2018-04-15T19:52:30.371Z,4.17
2018-04-15T19:54:58.512Z,4.23
2018-04-15T19:57:26.624Z,3.40
2018-04-15T19:59:54.770Z,4.17
2018-04-15T20:02:22.915Z,3.73
2018-04-15T20:04:51.035Z,1.80
2018-04-15T20:07:19.153Z,3.40
2018-04-15T20:09:47.301Z,6.47
2018-04-15T20:12:15.429Z,10.27
2018-04-15T20:14:43.548Z,40.20
2018-04-15T20:17:11.726Z,22.77
2018-04-15T20:19:39.914Z,6.07
2018-04-15T20:22:08.002Z,5.03
2018-04-15T20:24:36.137Z,5.17
2018-04-15T20:27:04.348Z,10.10
2018-04-15T20:29:32.444Z,12.73
2018-04-15T20:32:00.679Z,6.97
2018-04-15T20:34:28.833Z,5.43
2018-04-15T20:36:56.980Z,3.87
2018-04-15T20:39:25.125Z,4.77
2018-04-15T20:41:53.385Z,5.40
2018-04-15T20:44:21.497Z,5.20
2018-04-15T20:46:49.646Z,9.00
2018-04-15T20:49:17.790Z,13.73
2018-04-15T20:51:45.922Z,15.10
2018-04-15T20:54:14.063Z,15.57
2018-04-15T20:56:42.205Z,15.53
2018-04-15T20:59:10.423Z,20.93
2018-04-15T21:01:38.558Z,16.03
2018-04-15T21:04:06.763Z,16.90
2018-04-15T21:06:34.941Z,6.03
2018-04-15T21:09:03.095Z,7.00
2018-04-15T21:11:31.243Z,7.47
2018-04-15T21:13:59.347Z,4.00
2018-04-15T21:16:27.472Z,4.00
2018-04-15T21:18:55.603Z,4.23
2018-04-15T21:21:23.738Z,3.37
2018-04-15T21:23:51.888Z,4.43
2018-04-15T21:26:20.069Z,5.10
2018-04-15T21:28:48.188Z,4.63
2018-04-15T21:31:16.351Z,5.40
2018-04-15T21:33:44.493Z,5.03
2018-04-15T21:36:12.627Z,7.27
2018-04-15T21:38:40.787Z,3.77
2018-04-15T21:41:08.901Z,5.10
2018-04-15T21:43:37.002Z,6.97
2018-04-15T21:46:05.145Z,6.53
2018-04-15T21:48:33.285Z,5.37
2018-04-15T21:51:01.423Z,6.00
2018-04-15T21:53:29.628Z,7.47
2018-04-15T21:55:57.758Z,6.47
2018-04-15T21:58:25.934Z,5.83
2018-04-15T22:00:54.088Z,5.70
2018-04-15T22:03:25.728Z,4.03
2018-04-15T22:05:53.854Z,3.30
2018-04-15T22:08:21.971Z,4.67
2018-04-15T22:10:50.076Z,5.17
2018-04-15T22:13:18.221Z,5.17
2018-04-15T22:15:46.348Z,4.60
2018-04-15T22:18:14.462Z,3.00
2018-04-15T22:20:42.574Z,2.80
2018-04-15T22:23:10.783Z,3.37
2018-04-15T22:25:38.899Z,5.17
2018-04-15T22:28:07.045Z,5.10
2018-04-15T22:30:35.157Z,5.47
2018-04-15T22:33:03.292Z,4.43
2018-04-15T22:35:31.406Z,3.60
2018-04-15T22:37:59.777Z,8.93
2018-04-15T22:40:27.917Z,4.93
2018-04-15T22:42:56.044Z,3.80
2018-04-15T22:45:24.159Z,6.30
2018-04-15T22:47:58.002Z,8.73
2018-04-15T22:50:31.843Z,5.43
2018-04-15T22:52:59.980Z,4.90
2018-04-15T22:55:28.110Z,5.27
2018-04-15T22:57:56.254Z,5.10
2018-04-15T23:00:24.374Z,5.67
2018-04-15T23:02:52.479Z,6.87
2018-04-15T23:05:20.610Z,4.30
2018-04-15T23:07:48.717Z,5.43
2018-04-15T23:10:16.845Z,4.43
2018-04-15T23:12:44.960Z,5.63
2018-04-15T23:15:13.095Z,4.93
2018-04-15T23:17:41.222Z,4.70
2018-04-15T23:20:09.372Z,5.03
2018-04-15T23:22:41.038Z,4.40
2018-04-15T23:25:09.134Z,3.83
2018-04-15T23:27:37.275Z,2.87
2018-04-15T23:30:05.419Z,3.80
2018-04-15T23:32:33.527Z,4.07
2018-04-15T23:35:01.662Z,4.90
2018-04-15T23:37:29.784Z,4.53
2018-04-15T23:39:57.897Z,7.73
2018-04-15T23:42:26.026Z,4.90
2018-04-15T23:44:54.159Z,4.23
2018-04-15T23:47:22.277Z,3.30
2018-04-15T23:49:50.402Z,5.37
2018-04-15T23:52:18.521Z,5.33
2018-04-15T23:54:46.644Z,4.00
2018-04-15T23:57:14.781Z,3.80
2018-04-15T23:59:42.903Z,5.37
